This is the latest recevied weather packets stored in our database for station/object vk4vs. If no packets are shown the sender has not sent any weather packets the latest 10 day(s).
| Time | Temp. | Humidity | Pressure | Rain* | Wind** | Luminosity | Snow |
|---|---|---|---|---|---|---|---|
| 1778045453 | 16.67° C | 88% | 1015.9 hPa | 0 mm | - | - | - |
| 1778043653 | 16.67° C | 88% | 1016 hPa | 0 mm | - | - | - |
| 1778041854 | 17.78° C | 82% | 1016 hPa | 0 mm | - | - | - |
| 1778040054 | 18.33° C | 82% | 1016.2 hPa | 0 mm | - | - | - |
| 1778038254 | 17.78° C | 85% | 1016.6 hPa | 0 mm | - | - | - |
| 1778036453 | 16.67° C | 87% | 1016.7 hPa | 0 mm | - | - | - |
| 1778034653 | 16.11° C | 91% | 1017.3 hPa | 0 mm | - | - | - |
| 1778032853 | 15.56° C | 96% | 1017.7 hPa | 0 mm | - | - | - |
| 1778031053 | 15° C | 98% | 1018.2 hPa | 0 mm | - | - | - |
| 1778029254 | 15° C | 99% | 1018.4 hPa | 0 mm | - | - | - |
| 1778027454 | 15° C | 99% | 1018.6 hPa | 0 mm | - | - | - |
| 1778025654 | 14.44° C | 98% | 1018.6 hPa | 0 mm | - | - | - |
| 1778023854 | 14.44° C | 98% | 1018.7 hPa | 0 mm | - | - | - |
| 1778022054 | 14.44° C | 98% | 1018.7 hPa | 0 mm | - | - | - |
| 1778020253 | 14.44° C | 98% | 1018.4 hPa | 0 mm | - | - | - |
| 1778018453 | 14.44° C | 98% | 1018.3 hPa | 0 mm | - | - | - |
| 1778016654 | 14.44° C | 98% | 1018.1 hPa | 0 mm | - | - | - |
| 1778014853 | 14.44° C | 98% | 1017.8 hPa | 0 mm | - | - | - |
| 1778013054 | 14.44° C | 98% | 1017.4 hPa | 0 mm | - | - | - |
| 1778011253 | 14.44° C | 98% | 1017.4 hPa | 0 mm | - | - | - |
| 1778009453 | 14.44° C | 98% | 1017.3 hPa | 0 mm | - | - | - |
| 1778007653 | 15° C | 98% | 1017.2 hPa | 0 mm | - | - | - |
| 1778005854 | 15° C | 98% | 1016.8 hPa | 0 mm | - | - | - |
| 1778004054 | 15° C | 98% | 1016.7 hPa | 0 mm | - | - | - |
| 1778002254 | 15° C | 97% | 1016.7 hPa | 0 mm | - | - | - |
* Rain latest hour (hover to see other rain measurements)
** Current wind speed in m/s (hover to see current wind gust speed)